createdAt,value
2022-11-19T00:02:43.475Z,12.90
2022-11-19T00:05:31.925Z,12.90
2022-11-19T00:08:20.860Z,12.90
2022-11-19T00:11:11.080Z,12.90
2022-11-19T00:13:58.491Z,12.90
2022-11-19T00:16:48.188Z,12.90
2022-11-19T00:19:36.592Z,12.90
2022-11-19T00:22:25.068Z,12.90
2022-11-19T00:25:13.443Z,12.90
2022-11-19T00:28:01.835Z,12.90
2022-11-19T00:30:50.243Z,12.90
2022-11-19T00:33:41.226Z,12.80
2022-11-19T00:36:29.631Z,12.80
2022-11-19T00:39:18.369Z,12.80
2022-11-19T00:42:07.254Z,12.70
2022-11-19T00:44:55.655Z,12.70
2022-11-19T00:47:44.070Z,12.70
2022-11-19T00:50:33.820Z,12.70
2022-11-19T00:53:22.263Z,12.70
2022-11-19T00:56:12.397Z,12.70
2022-11-19T00:59:00.831Z,12.70
2022-11-19T01:01:49.199Z,12.70
2022-11-19T01:04:37.824Z,12.70
2022-11-19T01:07:27.654Z,12.70
2022-11-19T01:10:16.896Z,12.70
2022-11-19T01:13:22.670Z,12.70
2022-11-19T01:16:12.872Z,12.70
2022-11-19T01:19:01.399Z,12.70
2022-11-19T01:21:49.787Z,12.70
2022-11-19T01:24:39.522Z,12.70
2022-11-19T01:27:27.889Z,12.70
2022-11-19T01:30:16.651Z,12.70
2022-11-19T01:33:05.213Z,12.60
2022-11-19T01:35:58.480Z,12.60
2022-11-19T01:38:50.660Z,12.60
2022-11-19T01:41:40.433Z,12.60
2022-11-19T01:45:01.246Z,12.60
2022-11-19T01:47:49.666Z,12.60
2022-11-19T01:50:41.352Z,12.60
2022-11-19T01:53:32.803Z,12.60
2022-11-19T01:56:22.010Z,12.50
2022-11-19T01:59:15.133Z,12.50
2022-11-19T02:02:03.615Z,12.50
2022-11-19T02:04:52.506Z,12.50
2022-11-19T02:07:41.602Z,12.50
2022-11-19T02:10:36.420Z,12.50
2022-11-19T02:13:27.558Z,12.50
2022-11-19T02:16:21.145Z,12.60
2022-11-19T02:19:13.787Z,12.60
2022-11-19T02:22:07.080Z,12.60
2022-11-19T02:24:55.734Z,12.60
2022-11-19T02:28:10.560Z,12.60
2022-11-19T02:31:03.201Z,12.60
2022-11-19T02:33:58.752Z,12.60
2022-11-19T02:36:49.521Z,12.60
2022-11-19T02:39:40.673Z,12.50
2022-11-19T02:42:30.674Z,12.60
2022-11-19T02:45:21.394Z,12.60
2022-11-19T02:48:13.112Z,12.60
2022-11-19T02:51:02.723Z,12.60
2022-11-19T02:53:51.115Z,12.60
2022-11-19T02:56:52.602Z,12.60
2022-11-19T03:00:00.433Z,12.60
2022-11-19T03:03:08.856Z,12.60
2022-11-19T03:06:04.189Z,12.70
2022-11-19T03:08:52.568Z,12.60
2022-11-19T03:11:40.960Z,12.60
2022-11-19T03:14:59.467Z,12.60
2022-11-19T03:18:03.966Z,12.60
2022-11-19T03:20:55.362Z,12.60
2022-11-19T03:23:48.651Z,12.60
2022-11-19T03:26:38.919Z,12.60
2022-11-19T03:29:27.669Z,12.60
2022-11-19T03:32:19.650Z,12.60
2022-11-19T03:35:11.765Z,12.60
2022-11-19T03:38:02.414Z,12.60
2022-11-19T03:40:52.195Z,12.60
2022-11-19T03:43:40.918Z,12.60
2022-11-19T03:46:29.792Z,12.60
2022-11-19T03:49:18.464Z,12.60
2022-11-19T03:52:10.491Z,12.60
2022-11-19T03:54:58.908Z,12.60
2022-11-19T03:57:48.704Z,12.60
2022-11-19T04:00:37.112Z,12.60
2022-11-19T04:03:25.571Z,12.60
2022-11-19T04:06:13.975Z,12.60
2022-11-19T04:09:02.382Z,12.60
2022-11-19T04:14:39.503Z,12.60
2022-11-19T04:17:27.905Z,12.60
2022-11-19T04:20:16.485Z,12.60
2022-11-19T04:23:04.932Z,12.60
2022-11-19T04:25:53.344Z,12.60
2022-11-19T04:28:41.870Z,12.60
2022-11-19T04:31:31.754Z,12.60
2022-11-19T04:34:20.210Z,12.60
2022-11-19T04:37:08.703Z,12.50
2022-11-19T04:39:57.101Z,12.50
2022-11-19T04:42:45.496Z,12.50
2022-11-19T04:45:33.924Z,12.40
2022-11-19T04:48:23.692Z,12.40
2022-11-19T04:51:12.114Z,12.40
2022-11-19T04:54:00.557Z,12.40
2022-11-19T04:56:48.977Z,12.40
2022-11-19T04:59:37.395Z,12.30
2022-11-19T05:02:25.860Z,12.30
2022-11-19T05:05:15.838Z,12.30
2022-11-19T05:08:04.314Z,12.30
2022-11-19T05:10:52.723Z,12.30
2022-11-19T05:13:41.127Z,12.30
2022-11-19T05:16:29.567Z,12.20
2022-11-19T05:19:18.294Z,12.20
2022-11-19T05:22:08.356Z,12.20
2022-11-19T05:24:56.778Z,12.10
2022-11-19T05:27:45.199Z,12.00
2022-11-19T05:30:33.686Z,11.90
2022-11-19T05:33:22.333Z,11.80
2022-11-19T05:36:11.136Z,11.70
2022-11-19T05:39:00.876Z,11.60
2022-11-19T05:41:49.281Z,11.50
2022-11-19T05:44:37.685Z,11.40
2022-11-19T05:47:26.277Z,11.30
2022-11-19T05:50:15.171Z,11.20
2022-11-19T05:53:05.155Z,11.20
2022-11-19T05:55:54.954Z,11.10
2022-11-19T05:58:43.345Z,11.10
2022-11-19T06:01:31.847Z,11.10
2022-11-19T06:04:20.262Z,11.10
2022-11-19T06:07:08.703Z,11.10
2022-11-19T06:09:57.153Z,11.10
2022-11-19T06:12:46.885Z,11.20
2022-11-19T06:15:35.316Z,11.20
2022-11-19T06:18:23.715Z,11.20
2022-11-19T06:21:12.521Z,11.30
2022-11-19T06:24:00.985Z,11.30
2022-11-19T06:26:49.378Z,11.30
2022-11-19T06:29:39.198Z,11.40
2022-11-19T06:32:27.785Z,11.40
2022-11-19T06:35:16.490Z,11.40
2022-11-19T06:38:04.927Z,11.40
2022-11-19T06:40:53.347Z,11.40
2022-11-19T06:43:43.032Z,11.50
2022-11-19T06:46:32.801Z,11.50
2022-11-19T06:49:21.611Z,11.60
2022-11-19T06:52:10.713Z,11.60
2022-11-19T06:54:59.303Z,11.70
2022-11-19T06:57:47.765Z,11.60
2022-11-19T07:00:36.461Z,11.70
2022-11-19T07:03:26.411Z,11.70
2022-11-19T07:05:58.219Z,11.70
2022-11-19T07:08:26.452Z,11.70
2022-11-19T07:10:56.451Z,11.80
2022-11-19T07:13:24.647Z,11.80
2022-11-19T07:15:52.775Z,11.80
2022-11-19T07:18:20.908Z,11.80
2022-11-19T07:20:50.622Z,11.70
2022-11-19T07:23:20.254Z,11.70
2022-11-19T07:25:48.350Z,11.70
2022-11-19T07:28:16.514Z,11.70
2022-11-19T07:30:44.713Z,11.70
2022-11-19T07:33:12.874Z,11.60
2022-11-19T07:35:41.114Z,11.60
2022-11-19T07:38:10.617Z,11.60
2022-11-19T07:40:38.734Z,11.60
2022-11-19T07:43:05.892Z,11.60
2022-11-19T07:45:35.421Z,11.60
2022-11-19T07:48:03.638Z,11.60
2022-11-19T07:50:31.792Z,11.50
2022-11-19T07:53:00.137Z,11.50
2022-11-19T07:55:29.620Z,11.40
2022-11-19T07:57:57.761Z,11.40
2022-11-19T08:00:26.053Z,11.30
2022-11-19T08:02:54.284Z,11.30
2022-11-19T08:05:22.446Z,11.20
2022-11-19T08:07:50.561Z,11.10
2022-11-19T08:10:18.789Z,11.10
2022-11-19T08:13:03.115Z,11.00
2022-11-19T08:15:31.601Z,10.90
2022-11-19T08:18:26.046Z,10.80
2022-11-19T08:20:56.685Z,10.80
2022-11-19T08:23:25.010Z,10.70
2022-11-19T08:25:53.736Z,10.60
2022-11-19T08:28:23.262Z,10.50
2022-11-19T08:30:51.367Z,10.50
2022-11-19T08:33:19.508Z,10.40
2022-11-19T08:35:47.662Z,10.40
2022-11-19T08:38:15.824Z,10.40
2022-11-19T08:40:43.998Z,10.30
2022-11-19T08:43:11.166Z,10.30
2022-11-19T08:45:40.651Z,10.30
2022-11-19T08:48:10.397Z,10.20
2022-11-19T08:50:38.727Z,10.20
2022-11-19T08:53:07.171Z,10.20
2022-11-19T08:55:35.345Z,10.10
2022-11-19T08:58:03.899Z,10.10
2022-11-19T09:00:33.134Z,10.10
2022-11-19T09:03:02.699Z,10.10
2022-11-19T09:05:30.898Z,10.10
2022-11-19T09:07:59.007Z,10.10
2022-11-19T09:10:27.315Z,10.10
2022-11-19T09:12:55.566Z,10.10
2022-11-19T09:15:23.796Z,10.00
2022-11-19T09:17:52.014Z,10.00
2022-11-19T09:20:21.619Z,10.00
2022-11-19T09:22:49.729Z,10.00
2022-11-19T09:25:17.976Z,9.90
2022-11-19T09:27:46.186Z,9.90
2022-11-19T09:30:15.314Z,9.90
2022-11-19T09:32:43.485Z,9.80
2022-11-19T09:35:11.759Z,9.80
2022-11-19T09:37:41.242Z,9.70
2022-11-19T09:40:12.489Z,9.70
2022-11-19T09:42:44.456Z,9.70
2022-11-19T09:45:19.629Z,9.60
2022-11-19T09:48:13.471Z,9.60
2022-11-19T09:50:53.475Z,9.60
2022-11-19T09:53:23.879Z,9.50
2022-11-19T09:55:53.555Z,9.50
2022-11-19T09:58:24.015Z,9.40
2022-11-19T10:00:52.729Z,9.40
2022-11-19T10:03:22.736Z,9.30
2022-11-19T10:06:19.388Z,9.30
2022-11-19T10:09:04.402Z,9.30
2022-11-19T10:11:42.234Z,9.20
2022-11-19T10:14:17.316Z,9.30
2022-11-19T10:16:54.328Z,9.20
2022-11-19T10:19:34.963Z,9.20
2022-11-19T10:22:08.073Z,9.20
2022-11-19T10:24:41.944Z,9.20
2022-11-19T10:27:19.537Z,9.20
2022-11-19T10:29:48.035Z,9.20
2022-11-19T10:32:25.339Z,9.30
2022-11-19T10:34:57.764Z,9.30
2022-11-19T10:37:27.525Z,9.30
2022-11-19T10:39:58.824Z,9.30
2022-11-19T10:42:28.657Z,9.30
2022-11-19T10:44:59.021Z,9.40
2022-11-19T10:47:31.313Z,9.40
2022-11-19T10:49:59.434Z,9.40
2022-11-19T10:52:31.067Z,9.50
2022-11-19T10:55:05.218Z,9.50
2022-11-19T10:57:33.697Z,9.50
2022-11-19T11:00:02.511Z,9.50
2022-11-19T11:02:39.285Z,9.50
2022-11-19T11:05:11.124Z,9.50
2022-11-19T11:07:54.848Z,9.50
2022-11-19T11:10:37.544Z,9.50
2022-11-19T11:13:34.672Z,9.50
2022-11-19T11:16:08.112Z,9.50
2022-11-19T11:18:36.505Z,9.50
2022-11-19T11:21:04.725Z,9.50
2022-11-19T11:23:32.860Z,9.50
2022-11-19T11:26:06.608Z,9.50
2022-11-19T11:28:35.153Z,9.50
2022-11-19T11:31:04.593Z,9.50
2022-11-19T11:33:35.471Z,9.50
2022-11-19T11:36:07.041Z,9.50
2022-11-19T11:38:41.398Z,9.50
2022-11-19T11:44:04.275Z,9.40
2022-11-19T11:46:41.484Z,9.40
2022-11-19T11:49:21.645Z,9.30
2022-11-19T11:52:02.319Z,9.30
2022-11-19T11:54:30.460Z,9.30
2022-11-19T11:57:15.803Z,9.30
2022-11-19T11:59:44.029Z,9.20
2022-11-19T12:02:26.962Z,9.30
2022-11-19T12:04:55.793Z,9.20
2022-11-19T12:07:38.379Z,9.20
2022-11-19T12:10:19.634Z,9.20
2022-11-19T12:12:53.976Z,9.10
2022-11-19T12:15:26.869Z,9.10
2022-11-19T12:17:58.599Z,9.10
2022-11-19T12:20:36.815Z,9.10
2022-11-19T12:23:21.097Z,9.10
2022-11-19T12:25:57.449Z,9.00
2022-11-19T12:28:37.860Z,9.00
2022-11-19T12:31:15.285Z,9.00
2022-11-19T12:34:01.954Z,8.90
2022-11-19T12:36:36.834Z,8.90
2022-11-19T12:39:14.930Z,8.90
2022-11-19T12:42:24.479Z,8.90
2022-11-19T12:44:58.385Z,8.90
2022-11-19T12:47:42.084Z,8.90
2022-11-19T12:50:19.810Z,8.90
2022-11-19T12:53:19.924Z,8.90
2022-11-19T12:55:55.497Z,8.90
2022-11-19T12:58:30.509Z,8.90
2022-11-19T13:01:01.710Z,8.90
2022-11-19T13:03:44.546Z,8.90
2022-11-19T13:06:17.928Z,8.90
2022-11-19T13:08:49.814Z,8.90
2022-11-19T13:11:21.899Z,8.90
2022-11-19T13:13:52.593Z,9.00
2022-11-19T13:16:23.003Z,9.00
2022-11-19T13:18:53.190Z,9.10
2022-11-19T13:21:28.693Z,9.10
2022-11-19T13:23:56.842Z,9.10
2022-11-19T13:26:28.003Z,9.10
2022-11-19T13:28:58.291Z,9.10
2022-11-19T13:31:33.010Z,9.10
2022-11-19T13:34:02.507Z,9.20
2022-11-19T13:36:34.054Z,9.20
2022-11-19T13:39:05.475Z,9.20
2022-11-19T13:41:35.547Z,9.30
2022-11-19T13:44:21.197Z,9.30
2022-11-19T13:46:52.815Z,9.30
2022-11-19T13:49:24.068Z,9.30
2022-11-19T13:51:54.419Z,9.30
2022-11-19T13:54:26.013Z,9.20
2022-11-19T13:56:56.797Z,9.20
2022-11-19T13:59:32.356Z,9.20
2022-11-19T14:02:55.224Z,9.20
2022-11-19T14:06:14.059Z,9.20
2022-11-19T14:08:53.691Z,9.20
2022-11-19T14:11:33.564Z,9.20
2022-11-19T14:14:34.143Z,9.20
2022-11-19T14:17:24.821Z,9.20
2022-11-19T14:20:15.189Z,9.20
2022-11-19T14:23:01.674Z,9.10
2022-11-19T14:26:01.318Z,9.10
2022-11-19T14:28:48.892Z,9.10
2022-11-19T14:31:17.480Z,9.00
2022-11-19T14:34:03.932Z,9.00
2022-11-19T14:36:45.626Z,8.90
2022-11-19T14:39:20.705Z,8.90
2022-11-19T14:41:49.108Z,8.90
2022-11-19T14:44:34.153Z,8.90
2022-11-19T14:47:35.230Z,8.90
2022-11-19T14:50:06.049Z,8.90
2022-11-19T14:52:39.748Z,8.90
2022-11-19T14:55:20.818Z,8.90
2022-11-19T14:57:56.707Z,8.90
2022-11-19T15:00:31.048Z,8.90
2022-11-19T15:02:59.188Z,8.90
2022-11-19T15:05:30.318Z,8.90
2022-11-19T15:08:34.811Z,8.90
2022-11-19T15:11:08.159Z,8.90
2022-11-19T15:13:36.640Z,8.90
2022-11-19T15:16:11.951Z,8.90
2022-11-19T15:19:23.163Z,8.90
2022-11-19T15:22:18.044Z,8.80
2022-11-19T15:25:23.028Z,8.80
2022-11-19T15:28:01.446Z,8.80
2022-11-19T15:30:48.684Z,8.80
2022-11-19T15:33:47.369Z,8.80
2022-11-19T15:36:33.792Z,8.80
2022-11-19T15:39:06.363Z,8.80
2022-11-19T15:41:39.666Z,8.70
2022-11-19T15:44:10.010Z,8.70
2022-11-19T15:46:41.986Z,8.70
2022-11-19T15:49:15.225Z,8.70
2022-11-19T15:52:00.329Z,8.70
2022-11-19T15:54:29.659Z,8.70
2022-11-19T15:57:01.787Z,8.70
2022-11-19T15:59:30.208Z,8.70
2022-11-19T16:02:01.030Z,8.70
2022-11-19T16:04:36.742Z,8.70
2022-11-19T16:07:05.640Z,8.70
2022-11-19T16:09:33.745Z,8.70
2022-11-19T16:12:20.836Z,8.70
2022-11-19T16:15:09.749Z,8.70
2022-11-19T16:17:44.383Z,8.70
2022-11-19T16:20:22.855Z,8.70
2022-11-19T16:22:57.258Z,8.70
2022-11-19T16:25:33.451Z,8.70
2022-11-19T16:28:05.835Z,8.70
2022-11-19T16:30:43.958Z,8.70
2022-11-19T16:33:18.475Z,8.70
2022-11-19T16:35:52.370Z,8.70
2022-11-19T16:38:26.777Z,8.70
2022-11-19T16:41:12.635Z,8.70
2022-11-19T16:43:44.780Z,8.80
2022-11-19T16:46:14.413Z,8.70
2022-11-19T16:49:00.572Z,8.70
2022-11-19T16:51:39.508Z,8.70
2022-11-19T16:54:09.457Z,8.60
2022-11-19T16:56:43.714Z,8.60
2022-11-19T16:59:20.683Z,8.60
2022-11-19T17:01:57.432Z,8.60
2022-11-19T17:04:28.083Z,8.60
2022-11-19T17:06:56.291Z,8.50
2022-11-19T17:09:33.068Z,8.50
2022-11-19T17:12:19.576Z,8.50
2022-11-19T17:14:58.057Z,8.50
2022-11-19T17:17:41.709Z,8.50
2022-11-19T17:21:01.604Z,8.50
2022-11-19T17:23:31.336Z,8.60
2022-11-19T17:26:00.366Z,8.60
2022-11-19T17:28:35.175Z,8.60
2022-11-19T17:31:07.423Z,8.60
2022-11-19T17:33:36.847Z,8.60
2022-11-19T17:36:05.866Z,8.60
2022-11-19T17:38:34.147Z,8.60
2022-11-19T17:41:04.865Z,8.60
2022-11-19T17:43:52.265Z,8.70
2022-11-19T17:46:22.396Z,8.70
2022-11-19T17:48:50.901Z,8.70
2022-11-19T17:51:20.294Z,8.70
2022-11-19T17:53:51.299Z,8.70
2022-11-19T17:56:21.284Z,8.70
2022-11-19T17:58:49.479Z,8.70
2022-11-19T18:01:17.853Z,8.70
2022-11-19T18:03:47.579Z,8.60
2022-11-19T18:06:17.565Z,8.60
2022-11-19T18:08:45.890Z,8.60
2022-11-19T18:11:15.446Z,8.50
2022-11-19T18:13:43.766Z,8.50
2022-11-19T18:16:13.918Z,8.50
2022-11-19T18:18:42.121Z,8.50
2022-11-19T18:21:12.929Z,8.50
2022-11-19T18:23:41.171Z,8.40
2022-11-19T18:26:11.515Z,8.40
2022-11-19T18:28:40.926Z,8.40
2022-11-19T18:31:15.619Z,8.40
2022-11-19T18:33:45.274Z,8.40
2022-11-19T18:36:14.886Z,8.40
2022-11-19T18:38:43.121Z,8.50
2022-11-19T18:41:11.633Z,8.50
2022-11-19T18:43:57.631Z,8.50
2022-11-19T18:46:26.037Z,8.50
2022-11-19T18:48:54.549Z,8.50
2022-11-19T18:51:31.130Z,8.50
2022-11-19T18:53:59.389Z,8.50
2022-11-19T18:56:27.647Z,8.50
2022-11-19T18:58:58.109Z,8.50
2022-11-19T19:01:30.663Z,8.50
2022-11-19T19:03:58.893Z,8.50
2022-11-19T19:06:28.438Z,8.50
2022-11-19T19:08:56.578Z,8.50
2022-11-19T19:11:42.481Z,8.40
2022-11-19T19:14:10.670Z,8.40
2022-11-19T19:16:38.900Z,8.40
2022-11-19T19:19:07.030Z,8.40
2022-11-19T19:21:36.894Z,8.30
2022-11-19T19:24:06.179Z,8.30
2022-11-19T19:26:34.512Z,8.20
2022-11-19T19:29:02.809Z,8.20
2022-11-19T19:31:30.974Z,8.20
2022-11-19T19:33:59.170Z,8.10
2022-11-19T19:36:27.440Z,8.10
2022-11-19T19:38:56.911Z,8.00
2022-11-19T19:41:26.290Z,8.00
2022-11-19T19:43:54.740Z,8.00
2022-11-19T19:46:24.008Z,8.00
2022-11-19T19:48:53.734Z,7.90
2022-11-19T19:51:23.194Z,7.90
2022-11-19T19:53:53.171Z,7.90
2022-11-19T19:56:23.935Z,7.90
2022-11-19T19:58:52.249Z,7.90
2022-11-19T20:01:21.667Z,7.80
2022-11-19T20:03:54.255Z,7.80
2022-11-19T20:06:24.210Z,7.80
2022-11-19T20:08:52.478Z,7.80
2022-11-19T20:11:24.549Z,7.70
2022-11-19T20:13:52.929Z,7.70
2022-11-19T20:16:22.290Z,7.70
2022-11-19T20:18:51.553Z,7.70
2022-11-19T20:21:20.905Z,7.70
2022-11-19T20:23:49.033Z,7.70
2022-11-19T20:26:18.786Z,7.70
2022-11-19T20:28:48.500Z,7.70
2022-11-19T20:31:17.932Z,7.70
2022-11-19T20:33:46.832Z,7.70
2022-11-19T20:36:17.615Z,7.80
2022-11-19T20:38:46.197Z,7.80
2022-11-19T20:41:29.608Z,7.90
2022-11-19T20:44:17.251Z,7.90
2022-11-19T20:46:45.506Z,7.90
2022-11-19T20:49:17.215Z,7.90
2022-11-19T20:51:46.046Z,7.90
2022-11-19T20:54:14.362Z,7.90
2022-11-19T20:56:42.555Z,7.90
2022-11-19T20:59:12.514Z,7.90
2022-11-19T21:01:40.738Z,7.90
2022-11-19T21:04:31.299Z,7.90
2022-11-19T21:07:19.841Z,7.90
2022-11-19T21:10:09.369Z,7.80
2022-11-19T21:13:03.872Z,7.80
2022-11-19T21:15:53.901Z,7.80
2022-11-19T21:18:42.652Z,7.80
2022-11-19T21:21:31.036Z,7.80
2022-11-19T21:24:19.688Z,7.90
2022-11-19T21:27:08.164Z,7.90
2022-11-19T21:29:56.551Z,7.90
2022-11-19T21:32:46.338Z,7.80
2022-11-19T21:35:34.954Z,7.80
2022-11-19T21:38:23.748Z,7.80
2022-11-19T21:41:12.113Z,7.80
2022-11-19T21:44:00.598Z,7.80
2022-11-19T21:46:48.981Z,7.80
2022-11-19T21:49:38.719Z,7.80
2022-11-19T21:52:27.151Z,7.80
2022-11-19T21:55:15.646Z,7.80
2022-11-19T21:58:04.406Z,7.80
2022-11-19T22:00:57.694Z,7.70
2022-11-19T22:03:46.191Z,7.70
2022-11-19T22:06:35.933Z,7.70
2022-11-19T22:09:24.317Z,7.70
2022-11-19T22:12:12.705Z,7.80
2022-11-19T22:15:01.135Z,7.80
2022-11-19T22:17:49.718Z,7.80
2022-11-19T22:20:38.125Z,7.80
2022-11-19T22:23:27.851Z,7.80
2022-11-19T22:26:16.534Z,7.80
2022-11-19T22:29:04.947Z,7.80
2022-11-19T22:31:53.310Z,7.80
2022-11-19T22:34:41.883Z,7.80
2022-11-19T22:37:30.318Z,7.80
2022-11-19T22:40:20.153Z,7.80
2022-11-19T22:43:08.584Z,7.80
2022-11-19T22:45:56.967Z,7.80
2022-11-19T22:48:45.433Z,7.80
2022-11-19T22:51:33.825Z,7.80
2022-11-19T22:54:22.222Z,7.80
2022-11-19T22:57:11.979Z,7.80
2022-11-19T23:00:00.367Z,7.80
2022-11-19T23:02:48.782Z,7.70
2022-11-19T23:05:37.420Z,7.70
2022-11-19T23:08:25.887Z,7.70
2022-11-19T23:11:41.126Z,7.70
2022-11-19T23:14:30.143Z,7.70
2022-11-19T23:17:18.720Z,7.70
2022-11-19T23:20:08.794Z,7.70
2022-11-19T23:22:57.235Z,7.70
2022-11-19T23:25:45.593Z,7.70
2022-11-19T23:28:34.929Z,7.70
2022-11-19T23:31:25.863Z,7.70
2022-11-19T23:34:14.242Z,7.70
2022-11-19T23:37:02.776Z,7.70
2022-11-19T23:39:51.202Z,7.70
2022-11-19T23:42:39.620Z,7.70
2022-11-19T23:45:27.970Z,7.70
2022-11-19T23:48:17.835Z,7.70
2022-11-19T23:51:08.259Z,7.70
2022-11-19T23:53:57.025Z,7.70
2022-11-19T23:56:45.443Z,7.80
2022-11-19T23:59:33.829Z,7.80
